Time;durP1;ratioP1;P1;durP2;ratioP2;P2;SDS_P1;SDS_P2;PMS_P1;PMS_P2;Temp;Humidity;BMP_temperature;BMP_pressure;BME280_temperature;BME280_humidity;BME280_pressure;Samples;Min_cycle;Max_cycle;Signal;HPM_P1;HPM_P2
2022/01/12 00:01:45;;;;;;;175.50;88.88;;;;;;;-6.24;100.00;101658.88;5029941;28;20064;-79
2022/01/12 00:04:11;;;;;;;166.25;85.50;;;;;;;-6.17;100.00;101665.16;5028432;28;20045;-79
2022/01/12 00:06:36;;;;;;;167.55;88.40;;;;;;;-6.14;100.00;101653.50;5029209;28;20091;-78
2022/01/12 00:09:07;;;;;;;167.48;84.43;;;;;;;-6.08;100.00;101650.41;5015853;28;20029;-79
2022/01/12 00:11:35;;;;;;;167.38;84.95;;;;;;;-6.03;100.00;101651.53;4992751;28;20124;-78
2022/01/12 00:14:04;;;;;;;164.00;88.95;;;;;;;-5.97;100.00;101645.91;4993199;28;20039;-79
2022/01/12 00:16:30;;;;;;;173.18;89.15;;;;;;;-5.87;100.00;101653.16;4993089;28;20046;-79
2022/01/12 00:18:56;;;;;;;171.85;89.45;;;;;;;-5.82;100.00;101660.22;4993007;28;20030;-79
2022/01/12 00:21:21;;;;;;;170.35;87.45;;;;;;;-5.86;100.00;101635.47;4976385;28;20046;-79
2022/01/12 00:23:47;;;;;;;188.55;96.15;;;;;;;-5.67;100.00;101650.00;4954016;28;20118;-79
2022/01/12 00:26:26;;;;;;;184.75;97.18;;;;;;;-5.59;100.00;101650.38;4953855;29;20094;-79
2022/01/12 00:34:20;;;;;;;218.55;108.68;;;;;;;-5.53;100.00;101645.59;4954082;29;20123;-77
2022/01/12 00:36:47;;;;;;;236.63;114.53;;;;;;;-5.48;100.00;101640.75;4954013;29;20043;-77
2022/01/12 00:39:14;;;;;;;222.63;111.45;;;;;;;-5.53;100.00;101628.69;4953805;28;20400;-77
2022/01/12 00:41:41;;;;;;;232.15;112.40;;;;;;;-5.40;100.00;101650.50;4953770;28;20057;-77
2022/01/12 00:44:10;;;;;;;207.27;108.18;;;;;;;-5.46;100.00;101636.63;4953751;29;20412;-77
2022/01/12 00:46:38;;;;;;;209.35;104.72;;;;;;;-5.45;100.00;101648.53;4906826;29;20055;-77
2022/01/12 00:49:04;;;;;;;201.93;102.07;;;;;;;-5.45;100.00;101649.41;4957803;28;20129;-77
2022/01/12 00:51:32;;;;;;;202.73;99.55;;;;;;;-5.47;100.00;101645.94;4975872;28;20078;-77
2022/01/12 00:54:01;;;;;;;200.15;103.72;;;;;;;-5.55;100.00;101630.31;4982245;28;20072;-77
2022/01/12 00:56:27;;;;;;;184.73;96.88;;;;;;;-5.50;100.00;101637.28;5031578;28;20105;-77
2022/01/12 00:58:52;;;;;;;203.70;105.82;;;;;;;-5.53;100.00;101622.75;5031872;28;20026;-77
2022/01/12 01:01:22;;;;;;;219.48;112.72;;;;;;;-5.49;100.00;101634.81;5033133;28;20052;-79
2022/01/12 01:03:50;;;;;;;223.48;113.30;;;;;;;-5.53;100.00;101640.53;5032939;28;20033;-79
2022/01/12 01:06:18;;;;;;;244.18;123.15;;;;;;;-5.58;100.00;101653.00;5032491;28;20026;-79
2022/01/12 01:08:48;;;;;;;239.00;119.90;;;;;;;-5.57;100.00;101653.84;5032753;28;20168;-78
2022/01/12 01:11:18;;;;;;;224.38;112.95;;;;;;;-5.61;100.00;101654.50;5032402;28;20034;-79
2022/01/12 01:13:57;;;;;;;226.63;120.47;;;;;;;-5.61;100.00;101667.19;5034216;28;20038;-78
2022/01/12 01:27:28;;;;;;;229.60;111.60;;;;;;;-5.57;100.00;101626.81;5011086;28;20122;-78
2022/01/12 01:29:54;;;;;;;233.73;115.60;;;;;;;-5.50;100.00;101642.34;5011289;28;20132;-79
2022/01/12 01:32:20;;;;;;;229.70;114.90;;;;;;;-5.57;100.00;101631.88;5011176;28;20465;-79
2022/01/12 01:34:48;;;;;;;232.40;116.68;;;;;;;-5.53;100.00;101641.41;5011204;28;20030;-78
2022/01/12 01:37:14;;;;;;;220.35;108.32;;;;;;;-5.57;100.00;101636.97;5010949;28;20041;-79
2022/01/12 01:39:39;;;;;;;232.98;114.43;;;;;;;-5.62;100.00;101643.47;5011251;28;20030;-79
2022/01/12 01:42:15;;;;;;;232.43;114.65;;;;;;;-5.76;100.00;101631.75;5011178;28;20026;-79
2022/01/12 01:55:21;;;;;;;230.75;110.53;;;;;;;-5.78;100.00;101640.94;5013299;28;20045;-78
2022/01/12 01:57:47;;;;;;;218.88;107.20;;;;;;;-5.71;100.00;101643.00;5033223;28;20029;-79
2022/01/12 02:00:16;;;;;;;208.60;107.97;;;;;;;-5.68;100.00;101657.53;5033027;28;20025;-79
2022/01/12 02:02:44;;;;;;;198.32;99.72;;;;;;;-5.82;100.00;101633.97;5031711;28;20032;-78
2022/01/12 02:05:09;;;;;;;199.95;100.72;;;;;;;-5.80;100.00;101640.00;5032923;28;20353;-79
2022/01/12 02:07:35;;;;;;;205.55;102.93;;;;;;;-5.77;100.00;101643.59;5031188;28;20025;-78
2022/01/12 02:10:00;;;;;;;226.13;108.00;;;;;;;-5.78;100.00;101643.47;5032853;28;20022;-79
2022/01/12 02:12:28;;;;;;;221.13;108.97;;;;;;;-5.75;100.00;101648.72;5031444;28;20435;-79
2022/01/12 02:14:55;;;;;;;230.48;107.22;;;;;;;-5.77;100.00;101646.13;5033015;28;20052;-79
2022/01/12 02:17:25;;;;;;;231.80;110.90;;;;;;;-5.73;100.00;101656.41;5031320;28;20053;-79
2022/01/12 02:20:08;;;;;;;238.75;110.47;;;;;;;-5.81;100.00;101654.38;5031045;28;20124;-78
2022/01/12 02:36:24;;;;;;;210.15;104.38;;;;;;;-6.16;100.00;101654.22;5032372;28;20393;-79
2022/01/12 02:41:33;;;;;;;202.25;100.75;;;;;;;-6.24;100.00;101651.25;5032346;28;20041;-78
2022/01/12 02:54:46;;;;;;;214.25;107.18;;;;;;;-6.32;100.00;101624.63;5012346;28;20044;-78
2022/01/12 02:57:12;;;;;;;218.68;103.93;;;;;;;-6.21;100.00;101655.63;5012098;28;20109;-79
2022/01/12 02:59:43;;;;;;;236.68;109.32;;;;;;;-6.23;100.00;101657.22;5012203;28;20038;-78
2022/01/12 03:04:53;;;;;;;201.50;103.93;;;;;;;-6.48;100.00;101629.69;5012236;28;20068;-78
2022/01/12 03:07:20;;;;;;;203.65;99.88;;;;;;;-6.40;100.00;101636.06;4994158;28;20124;-78
2022/01/12 03:09:46;;;;;;;204.52;99.95;;;;;;;-6.40;100.00;101634.38;5012125;28;20068;-79
2022/01/12 03:12:11;;;;;;;209.20;101.47;;;;;;;-6.41;100.00;101640.22;5012028;28;20175;-79
2022/01/12 03:14:36;;;;;;;213.60;105.18;;;;;;;-6.53;100.00;101622.72;4994547;28;20018;-79
2022/01/12 03:17:02;;;;;;;219.50;110.20;;;;;;;-6.52;100.00;101631.19;4994432;28;20053;-78
2022/01/12 03:19:27;;;;;;;228.52;109.65;;;;;;;-6.55;100.00;101625.94;4994174;28;20466;-78
2022/01/12 03:21:53;;;;;;;217.35;107.50;;;;;;;-6.47;100.00;101633.97;5011896;28;20072;-78
2022/01/12 03:24:18;;;;;;;215.38;106.72;;;;;;;-6.59;100.00;101622.38;4994047;28;20489;-79
2022/01/12 03:26:44;;;;;;;221.93;103.95;;;;;;;-6.48;100.00;101637.31;5011792;28;20034;-78
2022/01/12 03:29:09;;;;;;;212.52;104.13;;;;;;;-6.59;100.00;101612.22;4994366;28;20053;-78
2022/01/12 03:31:36;;;;;;;230.55;109.85;;;;;;;-6.61;100.00;101605.34;5011924;28;20030;-78
2022/01/12 03:34:21;;;;;;;226.25;106.97;;;;;;;-6.46;100.00;101645.84;4994520;28;20120;-79
2022/01/12 04:09:46;;;;;;;250.13;115.20;;;;;;;-6.64;100.00;101644.06;5015626;28;20084;-78
2022/01/12 04:12:12;;;;;;;259.80;118.57;;;;;;;-6.57;100.00;101646.16;5015191;28;20041;-78
2022/01/12 04:14:37;;;;;;;262.38;120.30;;;;;;;-6.57;100.00;101641.09;5015307;28;20038;-79
2022/01/12 04:17:03;;;;;;;266.27;123.78;;;;;;;-6.61;100.00;101634.09;5015168;28;20033;-78
2022/01/12 04:19:29;;;;;;;257.83;120.85;;;;;;;-6.74;100.00;101605.44;5014851;28;20026;-78
2022/01/12 04:21:54;;;;;;;304.10;131.15;;;;;;;-6.55;100.00;101634.41;5014980;28;20075;-78
2022/01/12 04:24:20;;;;;;;274.63;126.03;;;;;;;-6.54;100.00;101633.63;5014838;28;20026;-79
2022/01/12 04:26:45;;;;;;;251.40;119.85;;;;;;;-6.56;100.00;101629.28;5014840;28;20124;-78
2022/01/12 04:29:11;;;;;;;276.25;125.75;;;;;;;-6.66;100.00;101632.09;5014752;28;20108;-78
2022/01/12 04:31:37;;;;;;;288.77;132.63;;;;;;;-6.70;100.00;101626.00;5014698;28;20025;-78
2022/01/12 04:34:05;;;;;;;277.52;127.22;;;;;;;-6.60;100.00;101637.50;4997322;28;20405;-78
2022/01/12 04:36:31;;;;;;;272.13;123.18;;;;;;;-6.66;100.00;101624.47;5014596;28;20113;-78
2022/01/12 04:38:56;;;;;;;267.15;128.30;;;;;;;-6.65;100.00;101613.56;5015015;28;20037;-79
2022/01/12 04:41:24;;;;;;;248.23;116.13;;;;;;;-6.58;100.00;101638.44;4997012;28;20064;-78
2022/01/12 04:43:51;;;;;;;267.40;120.28;;;;;;;-6.74;100.00;101616.50;4996988;28;20358;-78
2022/01/12 04:51:09;;;;;;;266.15;120.68;;;;;;;-6.86;100.00;101603.16;5014516;28;20037;-78
2022/01/12 04:53:35;;;;;;;257.40;118.05;;;;;;;-6.79;100.00;101618.75;4991773;28;20049;-78
2022/01/12 04:56:01;;;;;;;257.02;119.32;;;;;;;-6.71;100.00;101634.38;4992358;28;20117;-78
2022/01/12 04:58:27;;;;;;;259.70;120.20;;;;;;;-6.76;100.00;101627.31;4992304;28;20481;-78
2022/01/12 05:00:57;;;;;;;267.20;120.05;;;;;;;-6.81;100.00;101629.59;4992670;28;20030;-78
2022/01/12 05:13:55;;;;;;;242.10;113.13;;;;;;;-6.83;100.00;101633.69;4992504;28;20096;-79
2022/01/12 05:16:22;;;;;;;245.52;114.28;;;;;;;-6.84;100.00;101639.56;4991914;28;20552;-78
2022/01/12 05:18:49;;;;;;;235.50;112.95;;;;;;;-6.81;100.00;101642.25;4975783;28;20125;-78
2022/01/12 05:21:15;;;;;;;257.85;114.60;;;;;;;-6.80;100.00;101638.94;4992078;28;20226;-79
2022/01/12 05:23:41;;;;;;;238.13;112.88;;;;;;;-6.79;100.00;101646.59;4994643;28;20390;-78
2022/01/12 05:26:07;;;;;;;244.30;112.88;;;;;;;-6.80;100.00;101644.00;5014104;28;20076;-79
2022/01/12 05:28:34;;;;;;;237.10;108.70;;;;;;;-7.00;100.00;101620.09;5013749;28;20113;-78
2022/01/12 05:31:00;;;;;;;253.10;117.00;;;;;;;-6.89;100.00;101646.03;5014201;28;20042;-78
2022/01/12 05:33:26;;;;;;;238.05;110.90;;;;;;;-6.87;100.00;101662.16;4995939;28;20025;-78
2022/01/12 05:35:54;;;;;;;232.55;107.55;;;;;;;-7.05;100.00;101655.28;5013437;28;20103;-78
2022/01/12 05:38:20;;;;;;;246.60;110.97;;;;;;;-7.16;100.00;101643.72;5013495;28;20033;-78
2022/01/12 05:40:49;;;;;;;255.15;116.72;;;;;;;-7.17;100.00;101658.78;4996359;28;20030;-78
2022/01/12 05:43:24;;;;;;;261.00;120.57;;;;;;;-7.18;100.00;101665.53;5013055;28;20041;-79
2022/01/12 05:45:51;;;;;;;298.08;141.85;;;;;;;-7.26;100.00;101669.28;5013303;28;20050;-79
2022/01/12 05:50:42;;;;;;;265.83;122.65;;;;;;;-7.40;100.00;101662.56;5013676;28;20132;-78
2022/01/12 05:53:08;;;;;;;263.10;122.55;;;;;;;-7.42;100.00;101689.41;5013794;28;20382;-78
2022/01/12 05:55:37;;;;;;;312.90;146.35;;;;;;;-7.51;100.00;101678.75;5013418;28;20040;-79
2022/01/12 05:58:02;;;;;;;263.88;122.25;;;;;;;-7.50;100.00;101690.63;5013560;28;20087;-78
2022/01/12 06:00:29;;;;;;;391.75;187.98;;;;;;;-7.55;100.00;101678.56;5012989;28;20026;-77
2022/01/12 06:02:55;;;;;;;274.52;129.10;;;;;;;-7.53;100.00;101681.22;4995593;28;20085;-77
2022/01/12 06:05:21;;;;;;;253.73;121.47;;;;;;;-7.54;100.00;101676.94;5012674;28;20061;-78
2022/01/12 06:07:50;;;;;;;243.63;119.72;;;;;;;-7.54;100.00;101669.34;5013443;28;20018;-78
2022/01/12 06:10:17;;;;;;;254.50;121.30;;;;;;;-7.55;100.00;101670.09;5007759;28;20068;-77
2022/01/12 06:12:44;;;;;;;287.85;125.15;;;;;;;-7.46;100.00;101675.69;5013310;28;20026;-77
2022/01/12 06:15:11;;;;;;;249.27;115.30;;;;;;;-7.36;100.00;101685.59;5013195;28;20029;-77
2022/01/12 06:17:37;;;;;;;265.70;117.90;;;;;;;-7.40;100.00;101665.09;5012724;28;20061;-78
2022/01/12 06:20:04;;;;;;;252.02;113.93;;;;;;;-7.26;100.00;101679.41;4995597;28;20472;-77
2022/01/12 06:22:29;;;;;;;240.68;113.55;;;;;;;-7.31;100.00;101669.00;5012766;28;20026;-77
2022/01/12 06:24:57;;;;;;;252.65;120.45;;;;;;;-7.18;100.00;101680.72;5013007;28;20431;-78
2022/01/12 06:27:23;;;;;;;258.23;127.28;;;;;;;-7.25;100.00;101653.28;5012536;28;20025;-77
2022/01/12 06:30:03;;;;;;;286.98;134.23;;;;;;;-7.03;100.00;101676.53;4995143;28;20022;-78
2022/01/12 06:32:33;;;;;;;249.90;116.93;;;;;;;-7.01;100.00;101671.53;5012726;28;20048;-77
2022/01/12 06:34:59;;;;;;;232.43;109.72;;;;;;;-7.03;100.00;101650.34;5012963;28;20037;-78
2022/01/12 06:37:25;;;;;;;245.80;111.70;;;;;;;-6.97;100.00;101658.25;5006590;28;20030;-78
2022/01/12 06:39:52;;;;;;;241.77;109.97;;;;;;;-6.89;100.00;101663.75;5012800;28;20100;-78
2022/01/12 06:42:20;;;;;;;226.77;106.88;;;;;;;-6.90;100.00;101669.63;4990154;28;20073;-78
2022/01/12 06:44:47;;;;;;;223.00;104.43;;;;;;;-6.85;100.00;101694.41;4990876;28;20462;-78
2022/01/12 06:47:12;;;;;;;217.95;102.28;;;;;;;-6.91;100.00;101695.72;4990358;28;20057;-78
2022/01/12 06:49:38;;;;;;;226.85;107.50;;;;;;;-7.02;100.00;101677.41;4974010;28;20502;-78
2022/01/12 06:52:04;;;;;;;233.95;115.95;;;;;;;-6.91;100.00;101701.69;4990571;28;20113;-78
2022/01/12 06:54:29;;;;;;;243.13;119.00;;;;;;;-6.94;100.00;101698.09;4974020;28;20450;-78
2022/01/12 06:56:54;;;;;;;238.40;118.40;;;;;;;-6.92;100.00;101699.06;4990116;28;20038;-78
2022/01/12 06:59:20;;;;;;;241.00;120.75;;;;;;;-6.93;100.00;101692.25;4990040;28;20034;-78
2022/01/12 07:01:46;;;;;;;229.57;115.43;;;;;;;-6.93;100.00;101693.13;4990294;28;20109;-79
2022/01/12 07:04:11;;;;;;;235.25;108.72;;;;;;;-6.91;100.00;101693.19;4973987;28;20065;-78
2022/01/12 07:06:37;;;;;;;241.35;109.10;;;;;;;-6.90;100.00;101682.28;4989935;28;20125;-78
2022/01/12 07:09:06;;;;;;;222.18;108.53;;;;;;;-6.87;100.00;101684.97;4973957;28;20033;-78
2022/01/12 07:11:32;;;;;;;226.23;107.40;;;;;;;-6.78;100.00;101704.13;4990004;28;20080;-78
2022/01/12 07:13:58;;;;;;;214.75;103.80;;;;;;;-6.75;100.00;101702.53;4974149;28;20137;-78
2022/01/12 07:16:23;;;;;;;238.27;109.05;;;;;;;-6.74;100.00;101689.06;4989168;28;20575;-78
2022/01/12 07:18:49;;;;;;;249.00;110.80;;;;;;;-6.51;100.00;101705.56;4973855;28;20060;-78
2022/01/12 07:21:16;;;;;;;229.38;107.55;;;;;;;-6.41;100.00;101710.34;4990173;28;20147;-78
2022/01/12 07:23:41;;;;;;;213.10;107.32;;;;;;;-6.41;100.00;101701.06;4990039;28;20043;-78
2022/01/12 07:26:08;;;;;;;230.10;106.35;;;;;;;-6.22;100.00;101720.72;4973562;28;20073;-78
2022/01/12 07:28:36;;;;;;;230.27;109.93;;;;;;;-6.22;100.00;101695.34;4973390;28;20086;-78
2022/01/12 07:31:01;;;;;;;234.98;106.55;;;;;;;-6.07;100.00;101718.09;4942229;28;20478;-78
2022/01/12 07:33:26;;;;;;;274.58;120.85;;;;;;;-5.95;100.00;101730.59;5008421;28;20080;-78
2022/01/12 07:35:53;;;;;;;270.23;122.13;;;;;;;-5.85;100.00;101726.06;5012007;28;20108;-78
2022/01/12 07:38:21;;;;;;;216.68;107.40;;;;;;;-5.91;100.00;101705.41;5011626;28;20065;-78
2022/01/12 07:40:47;;;;;;;206.40;96.57;;;;;;;-5.90;100.00;101719.88;5011669;28;20053;-78
2022/01/12 07:43:13;;;;;;;214.13;102.32;;;;;;;-5.96;100.00;101709.41;4994418;28;20030;-78
2022/01/12 07:45:39;;;;;;;214.05;100.75;;;;;;;-6.00;100.00;101712.56;5011589;28;20026;-78
2022/01/12 07:48:04;;;;;;;214.05;103.50;;;;;;;-6.03;100.00;101709.88;5011891;28;20029;-79
2022/01/12 07:50:32;;;;;;;212.00;102.43;;;;;;;-6.16;100.00;101695.66;5011623;28;20066;-79
2022/01/12 07:52:58;;;;;;;243.25;114.80;;;;;;;-6.08;100.00;101696.06;5011776;28;20555;-79
2022/01/12 07:55:25;;;;;;;235.13;113.28;;;;;;;-6.05;100.00;101692.03;5011455;28;20033;-78
2022/01/12 07:57:52;;;;;;;214.23;102.68;;;;;;;-5.79;100.00;101713.69;5011968;28;20168;-78
2022/01/12 08:00:22;;;;;;;215.00;104.35;;;;;;;-5.61;100.00;101701.06;4988945;28;20166;-79
2022/01/12 08:03:10;;;;;;;220.57;103.93;;;;;;;-5.28;100.00;101723.91;4969986;28;20080;-78
2022/01/12 08:05:36;;;;;;;220.02;104.90;;;;;;;-5.29;100.00;101722.16;4918770;29;20059;-79
2022/01/12 08:08:02;;;;;;;217.85;104.38;;;;;;;-5.46;100.00;101717.91;4918701;29;20043;-79
2022/01/12 08:10:27;;;;;;;200.00;98.07;;;;;;;-5.53;100.00;101721.78;4950816;28;20407;-79
2022/01/12 08:13:13;;;;;;;214.55;100.25;;;;;;;-5.64;100.00;101716.16;4931772;29;20040;-78
2022/01/12 08:15:41;;;;;;;217.13;104.75;;;;;;;-5.71;100.00;101720.81;4931272;29;20400;-79
2022/01/12 08:18:11;;;;;;;216.02;104.43;;;;;;;-5.74;100.00;101726.59;4931506;29;20122;-78
2022/01/12 08:20:36;;;;;;;233.18;121.63;;;;;;;-5.81;100.00;101730.50;4915504;29;20464;-79
2022/01/12 08:23:02;;;;;;;214.00;105.13;;;;;;;-5.89;100.00;101710.59;4931603;29;20460;-79
2022/01/12 08:25:27;;;;;;;204.02;98.40;;;;;;;-5.76;100.00;101720.59;4931434;29;20539;-79
2022/01/12 08:28:02;;;;;;;214.75;102.13;;;;;;;-5.79;100.00;101715.34;4929572;29;20043;-79
2022/01/12 08:30:51;;;;;;;214.63;101.57;;;;;;;-5.71;100.00;101713.22;4941251;29;20119;-78
2022/01/12 08:33:17;;;;;;;221.48;106.28;;;;;;;-5.62;100.00;101704.41;4930787;29;20040;-78
2022/01/12 08:35:44;;;;;;;203.18;98.28;;;;;;;-5.47;100.00;101711.06;4895403;29;20044;-79
2022/01/12 08:38:10;;;;;;;200.02;96.15;;;;;;;-5.36;100.00;101694.69;4896070;29;20033;-79
2022/01/12 08:40:45;;;;;;;192.25;96.55;;;;;;;-5.13;100.00;101684.03;4864821;29;20501;-78
2022/01/12 08:43:16;;;;;;;187.55;93.72;;;;;;;-5.00;100.00;101679.56;4903842;28;20036;-79
2022/01/12 08:45:53;;;;;;;195.50;100.63;;;;;;;-5.08;100.00;101666.47;4977090;28;20053;-79
2022/01/12 08:48:20;;;;;;;191.18;93.82;;;;;;;-4.94;100.00;101697.63;4956891;28;20049;-79
2022/01/12 08:50:46;;;;;;;198.75;97.95;;;;;;;-4.87;100.00;101699.69;4953584;29;20460;-79
2022/01/12 08:53:12;;;;;;;183.82;89.95;;;;;;;-4.90;100.00;101666.47;4953851;29;20123;-78
2022/01/12 08:55:58;;;;;;;198.88;96.60;;;;;;;-4.63;100.00;101677.97;4953486;29;20041;-78
2022/01/12 08:58:23;;;;;;;194.50;95.10;;;;;;;-4.48;100.00;101677.81;4934051;29;20075;-79
2022/01/12 09:00:49;;;;;;;172.05;85.22;;;;;;;-4.32;100.00;101680.25;4918499;29;20126;-79
2022/01/12 09:03:14;;;;;;;170.85;85.15;;;;;;;-4.14;100.00;101685.31;4934270;29;20161;-79
2022/01/12 09:05:50;;;;;;;174.32;84.68;;;;;;;-3.97;100.00;101680.13;4938327;28;20044;-79
2022/01/12 09:08:16;;;;;;;157.40;80.50;;;;;;;-3.85;100.00;101684.09;4992043;28;20041;-79
2022/01/12 09:10:41;;;;;;;158.18;79.18;;;;;;;-3.79;100.00;101661.47;4953301;29;20043;-79
2022/01/12 09:13:07;;;;;;;158.45;77.57;;;;;;;-3.60;100.00;101680.06;4953355;29;20688;-78
2022/01/12 09:15:35;;;;;;;153.40;75.40;;;;;;;-3.51;100.00;101665.19;4952886;29;20102;-79
2022/01/12 09:18:09;;;;;;;150.90;75.93;;;;;;;-3.50;100.00;101669.44;4924022;29;20043;-79
2022/01/12 09:20:34;;;;;;;152.43;74.75;;;;;;;-3.48;100.00;101683.16;4914656;29;20054;-79
2022/01/12 09:23:22;;;;;;;151.65;77.82;;;;;;;-3.45;100.00;101692.59;4895907;29;20041;-79
2022/01/12 09:25:53;;;;;;;147.73;73.25;;;;;;;-3.44;100.00;101695.22;4895990;29;20032;-79
2022/01/12 09:28:20;;;;;;;;;;;;;;;-3.40;100.00;101689.44;4864966;29;20045;-79
2022/01/12 09:30:46;;;;;;;155.95;76.97;;;;;;;-3.36;100.00;101690.44;4896216;29;19911;-79
2022/01/12 09:33:13;;;;;;;145.77;75.70;;;;;;;-3.43;100.00;101689.31;4895999;29;20528;-79
2022/01/12 09:35:46;;;;;;;153.98;78.53;;;;;;;-3.46;100.00;101686.63;4912725;29;20071;-79
2022/01/12 09:38:11;;;;;;;153.23;78.30;;;;;;;-3.51;100.00;101676.22;4914956;29;20040;-79
2022/01/12 09:40:39;;;;;;;165.65;80.38;;;;;;;-3.54;100.00;101685.41;4913642;29;20044;-79
2022/01/12 09:43:06;;;;;;;151.50;77.10;;;;;;;-3.59;100.00;101697.94;4914799;29;20530;-79
2022/01/12 09:45:34;;;;;;;158.60;78.80;;;;;;;-3.63;100.00;101685.88;4915927;29;20079;-78
2022/01/12 09:48:05;;;;;;;165.95;80.82;;;;;;;-3.69;100.00;101692.41;4957380;28;21022;-79
2022/01/12 09:50:31;;;;;;;154.60;77.82;;;;;;;-3.69;100.00;101684.78;4957782;28;20125;-79
2022/01/12 09:52:59;;;;;;;165.55;81.85;;;;;;;-3.86;100.00;101656.88;4994595;28;20371;-79
2022/01/12 09:55:29;;;;;;;177.20;84.10;;;;;;;-3.78;100.00;101675.91;5031272;28;20037;-79
2022/01/12 09:57:55;;;;;;;173.20;86.65;;;;;;;-3.92;100.00;101646.44;5034489;28;20415;-79
2022/01/12 10:00:23;;;;;;;173.65;90.97;;;;;;;-3.95;100.00;101653.94;5033794;28;20033;-79
2022/01/12 10:02:52;;;;;;;168.15;87.03;;;;;;;-3.92;100.00;101654.09;5050538;28;20040;-79
2022/01/12 10:05:18;;;;;;;166.65;86.20;;;;;;;-3.80;100.00;101662.22;5050265;28;20112;-79
2022/01/12 10:07:45;;;;;;;162.05;84.30;;;;;;;-3.83;100.00;101645.97;5050422;28;20792;-79
2022/01/12 10:10:15;;;;;;;170.77;85.45;;;;;;;-3.67;100.00;101657.69;5033590;28;20029;-79
2022/01/12 10:12:53;;;;;;;;;;;;;;;-3.54;100.00;101673.56;5034054;28;20048;-79
2022/01/12 10:15:21;;;;;;;157.45;82.03;;;;;;;-3.49;100.00;101673.78;5050255;28;19915;-79
2022/01/12 10:17:47;;;;;;;183.27;101.15;;;;;;;-3.43;100.00;101679.09;5050238;28;20484;-79
2022/01/12 10:20:33;;;;;;;153.95;81.68;;;;;;;-3.40;100.00;101670.75;5050141;28;20025;-79
2022/01/12 10:23:10;;;;;;;155.38;83.25;;;;;;;-3.41;100.00;101666.44;5049096;28;20033;-79
2022/01/12 10:25:37;;;;;;;172.80;83.43;;;;;;;-3.40;100.00;101651.22;5010163;28;20073;-79
2022/01/12 10:28:24;;;;;;;623.33;256.85;;;;;;;-3.37;100.00;101651.38;4994032;28;20131;-79
2022/01/12 10:31:05;;;;;;;834.17;351.48;;;;;;;-3.28;100.00;101656.84;5010383;28;20038;-79
2022/01/12 10:33:35;;;;;;;437.77;189.30;;;;;;;-3.33;100.00;101635.41;5009930;28;20046;-79
2022/01/12 10:36:08;;;;;;;192.27;99.85;;;;;;;-3.24;100.00;101627.25;4993897;28;20511;-79
2022/01/12 10:38:34;;;;;;;157.98;76.93;;;;;;;-3.02;100.00;101639.19;5010066;28;20041;-79
2022/01/12 10:41:02;;;;;;;172.63;88.50;;;;;;;-2.92;100.00;101623.44;5009988;28;20044;-79
2022/01/12 10:43:38;;;;;;;163.35;83.57;;;;;;;-2.62;100.00;101645.84;5009938;28;20133;-79
2022/01/12 10:46:09;;;;;;;147.18;81.20;;;;;;;-2.47;100.00;101635.38;5009910;28;20075;-79
2022/01/12 10:48:49;;;;;;;170.68;88.10;;;;;;;-2.41;100.00;101603.28;5009890;28;20030;-79
2022/01/12 10:51:22;;;;;;;150.20;79.65;;;;;;;-2.30;100.00;101614.78;5009732;28;20099;-79
2022/01/12 10:53:50;;;;;;;149.45;77.53;;;;;;;-2.19;100.00;101624.50;4993614;28;20105;-79
2022/01/12 10:56:22;;;;;;;135.50;70.50;;;;;;;-2.11;100.00;101611.19;5002919;28;20124;-79
2022/01/12 10:58:50;;;;;;;153.98;76.97;;;;;;;-1.98;100.00;101622.75;4973973;28;20457;-79
2022/01/12 11:01:21;;;;;;;156.02;82.35;;;;;;;-2.07;100.00;101595.19;4973927;28;20053;-79
2022/01/12 11:03:48;;;;;;;146.02;80.20;;;;;;;-1.90;100.00;101608.53;4990671;28;20053;-79
2022/01/12 11:06:15;;;;;;;149.27;82.65;;;;;;;-1.88;100.00;101598.41;4990046;28;20053;-79
2022/01/12 11:08:42;;;;;;;157.95;83.40;;;;;;;-1.79;100.00;101606.38;4950952;29;20629;-79
2022/01/12 11:11:08;;;;;;;178.98;87.63;;;;;;;-1.81;100.00;101587.59;4956854;28;20398;-78
2022/01/12 11:13:37;;;;;;;227.05;108.47;;;;;;;-1.66;100.00;101598.31;4989921;28;20042;-79
2022/01/12 11:16:04;;;;;;;396.00;206.68;;;;;;;-1.64;100.00;101585.63;4973819;28;20038;-79
2022/01/12 11:18:35;;;;;;;160.68;78.80;;;;;;;-1.48;100.00;101609.97;4990287;28;20652;-79
2022/01/12 11:21:06;;;;;;;166.20;92.25;;;;;;;-1.44;100.00;101612.69;4973613;28;20401;-79
2022/01/12 11:23:36;;;;;;;;;;;;;;;-1.40;100.00;101613.66;4990292;28;20038;-78
2022/01/12 11:26:16;;;;;;;199.98;103.65;;;;;;;-1.40;100.00;101600.88;4990014;28;20320;-78
2022/01/12 11:28:42;;;;;;;210.00;116.70;;;;;;;-1.51;100.00;101578.41;4989766;28;20034;-79
2022/01/12 11:31:08;;;;;;;171.93;97.55;;;;;;;-1.45;100.00;101585.41;5023925;28;20030;-78
2022/01/12 11:33:34;;;;;;;146.63;74.13;;;;;;;-1.41;100.00;101592.34;5012525;28;20047;-78
2022/01/12 11:36:03;;;;;;;149.10;77.75;;;;;;;-1.61;100.00;101557.59;5012728;28;20513;-78
2022/01/12 11:38:31;;;;;;;156.05;85.93;;;;;;;-1.61;100.00;101555.03;5028893;28;20045;-78
2022/01/12 11:41:08;;;;;;;282.98;151.18;;;;;;;-1.60;100.00;101567.88;5029156;28;20022;-78
2022/01/12 11:43:42;;;;;;;159.07;89.93;;;;;;;-1.65;100.00;101561.72;5028959;28;20057;-78
2022/01/12 11:46:19;;;;;;;167.13;85.10;;;;;;;-1.72;100.00;101548.72;5037520;28;20133;-78
2022/01/12 11:48:51;;;;;;;350.42;140.85;;;;;;;-1.64;100.00;101565.19;5031611;28;20108;-79
2022/01/12 11:51:19;;;;;;;177.88;91.47;;;;;;;-1.66;100.00;101548.91;5013859;28;20057;-78
2022/01/12 11:53:55;;;;;;;148.05;78.20;;;;;;;-1.57;100.00;101552.63;5031470;28;20030;-78
2022/01/12 11:56:26;;;;;;;150.15;79.20;;;;;;;-1.62;100.00;101528.63;5031154;28;20025;-79
2022/01/12 11:58:52;;;;;;;146.43;77.43;;;;;;;-1.42;100.00;101557.41;5031327;28;20030;-79
2022/01/12 12:01:17;;;;;;;149.23;73.97;;;;;;;-1.42;100.00;101548.88;5031092;28;20493;-79
2022/01/12 12:04:01;;;;;;;140.30;74.47;;;;;;;-1.34;100.00;101547.44;5033782;28;20496;-79
2022/01/12 12:06:27;;;;;;;136.40;70.85;;;;;;;-1.35;100.00;101532.88;5034634;28;20057;-79
2022/01/12 12:09:03;;;;;;;129.88;69.57;;;;;;;-1.29;100.00;101536.50;5035216;28;20116;-79
2022/01/12 12:11:30;;;;;;;134.40;70.47;;;;;;;-1.44;100.00;101518.13;5017197;28;20696;-78
2022/01/12 12:14:04;;;;;;;130.27;67.07;;;;;;;-1.37;100.00;101537.09;5035162;28;20056;-79
2022/01/12 12:16:30;;;;;;;122.57;66.45;;;;;;;-1.38;100.00;101531.13;5034756;28;20063;-78
2022/01/12 12:18:56;;;;;;;147.95;83.20;;;;;;;-1.46;100.00;101512.13;5017218;28;20037;-78
2022/01/12 12:21:22;;;;;;;221.07;107.25;;;;;;;-1.36;100.00;101537.13;5034737;28;20029;-78
2022/01/12 12:23:47;;;;;;;1353.97;605.35;;;;;;;-1.49;100.00;101506.88;5034856;28;20035;-79
2022/01/12 12:26:18;;;;;;;1100.55;537.60;;;;;;;-1.34;100.00;101529.53;5034636;28;20477;-79
2022/01/12 12:28:52;;;;;;;360.40;206.40;;;;;;;-1.31;100.00;101527.06;5034613;28;20053;-79
2022/01/12 12:31:22;;;;;;;200.57;122.93;;;;;;;-1.35;100.00;101526.13;5017023;28;20037;-79
2022/01/12 12:33:58;;;;;;;218.68;114.63;;;;;;;-1.33;100.00;101536.38;5034725;28;20512;-79
2022/01/12 12:36:24;;;;;;;171.48;89.15;;;;;;;-1.39;100.00;101531.06;5034000;28;20117;-79
2022/01/12 12:38:49;;;;;;;150.20;89.35;;;;;;;-1.31;100.00;101535.63;5034477;28;20493;-79
2022/01/12 12:41:15;;;;;;;236.20;136.57;;;;;;;-1.35;100.00;101531.22;5016870;28;20033;-79
2022/01/12 12:43:41;;;;;;;211.48;117.28;;;;;;;-1.30;100.00;101536.47;5034480;28;20133;-79